Terminal Aerodrome Forecast
Issued by NWS Omaha/Valley, NE

Home | Current Version | Previous Version | Text Only | Print | Product List | Glossary On
Versions: 1 2 3 4 5 6 7 8 9 10 11 12 13 14 15
000
FTUS43 KOAX 281120
TAFOFK
TAF
KOFK 281120Z 2812/2912 35007KT P6SM FEW015
     FM281500 01009KT P6SM SCT025
      TEMPO 2815/2817 BKN025
     FM290000 04006KT P6SM FEW035
     FM290400 VRB03KT P6SM SKC=

USA.gov is the U.S. government's official web portal to all federal, state and local government web resources and services.